VCV63 SVLF-SVMI
Flight info
| Callsign | VCV63 |
|---|---|
| Flight time | 1h 2m |
| Altitude | 35000 |
| Route | GEGEN UW8 BRM UW40 PBL ALDAK1 |
| Aircraft | E190/M-SDE3GILORVW/S |
Departure
| Time | 2026-05-05 03:18 |
|---|---|
| Airport | La Fria Airport (SVLF) |
Arrival
| Time | 2026-05-05 04:21 |
|---|---|
| Airport | Maiquetía Simón Bolívar International Airport (SVMI) |
| Time | Latitude | Longitude | Altitude | Speed | Heading |
|---|---|---|---|---|---|
| 2026-05-05 03:01 | 8.23658 | -72.26805 | 314 ft | 0 kts | 3° |
| 2026-05-05 03:14 | 8.23661 | -72.26805 | 315 ft | 2 kts | 3° |
| 2026-05-05 03:14 | 8.23684 | -72.26815 | 313 ft | 6 kts | 320° |
| 2026-05-05 03:15 | 8.23697 | -72.26863 | 311 ft | 9 kts | 277° |
| 2026-05-05 03:15 | 8.23729 | -72.26926 | 312 ft | 12 kts | 320° |
| 2026-05-05 03:15 | 8.23823 | -72.26948 | 310 ft | 16 kts | 358° |
| 2026-05-05 03:15 | 8.23951 | -72.26950 | 308 ft | 20 kts | 0° |
| 2026-05-05 03:16 | 8.24106 | -72.26949 | 304 ft | 24 kts | 0° |
| 2026-05-05 03:16 | 8.24284 | -72.26947 | 299 ft | 27 kts | 1° |
| 2026-05-05 03:16 | 8.24482 | -72.26947 | 294 ft | 28 kts | 359° |
| 2026-05-05 03:16 | 8.24667 | -72.26947 | 289 ft | 24 kts | 360° |
| 2026-05-05 03:17 | 8.24793 | -72.26999 | 288 ft | 19 kts | 299° |
| 2026-05-05 03:17 | 8.24815 | -72.27092 | 289 ft | 9 kts | 264° |
| 2026-05-05 03:17 | 8.24795 | -72.27102 | 282 ft | 0 kts | 177° |
| 2026-05-05 03:17 | 8.24678 | -72.27100 | 287 ft | 49 kts | 180° |
| 2026-05-05 03:18 | 8.24092 | -72.27098 | 299 ft | 117 kts | 180° |
| 2026-05-05 03:18 | 8.23095 | -72.27097 | 465 ft | 161 kts | 179° |
| 2026-05-05 03:18 | 8.21930 | -72.27061 | 1152 ft | 172 kts | 178° |
| 2026-05-05 03:18 | 8.20644 | -72.26671 | 1371 ft | 225 kts | 140° |
| 2026-05-05 03:19 | 8.21155 | -72.23736 | 3409 ft | 251 kts | 58° |
| 2026-05-05 03:19 | 8.21769 | -72.22047 | 4390 ft | 270 kts | 80° |
| 2026-05-05 03:19 | 8.22230 | -72.20180 | 5669 ft | 277 kts | 71° |
| 2026-05-05 03:20 | 8.23042 | -72.18406 | 6977 ft | 280 kts | 63° |
| 2026-05-05 03:20 | 8.24001 | -72.16676 | 8217 ft | 284 kts | 62° |
| 2026-05-05 03:20 | 8.24990 | -72.14941 | 9444 ft | 287 kts | 62° |
| 2026-05-05 03:20 | 8.26015 | -72.13194 | 10538 ft | 298 kts | 61° |
| 2026-05-05 03:21 | 8.27119 | -72.11341 | 11297 ft | 316 kts | 60° |
| 2026-05-05 03:21 | 8.28349 | -72.09441 | 12139 ft | 331 kts | 58° |
| 2026-05-05 03:21 | 8.29669 | -72.07486 | 13010 ft | 342 kts | 58° |
| 2026-05-05 03:21 | 8.31050 | -72.05494 | 14004 ft | 349 kts | 58° |
| 2026-05-05 03:22 | 8.32465 | -72.03479 | 14961 ft | 356 kts | 57° |
| 2026-05-05 03:22 | 8.34214 | -72.01686 | 15844 ft | 373 kts | 24° |
| 2026-05-05 03:22 | 8.36766 | -72.01299 | 16895 ft | 371 kts | 12° |
| 2026-05-05 03:22 | 8.36799 | -72.01293 | 16911 ft | 371 kts | 12° |
| 2026-05-05 03:23 | 8.39154 | -72.00459 | 17661 ft | 374 kts | 34° |
| 2026-05-05 03:23 | 8.40990 | -71.98621 | 18462 ft | 375 kts | 59° |
| 2026-05-05 03:24 | 8.41957 | -71.96170 | 19170 ft | 378 kts | 75° |
| 2026-05-05 03:24 | 8.42601 | -71.93614 | 19843 ft | 383 kts | 75° |
| 2026-05-05 03:24 | 8.43421 | -71.90995 | 20512 ft | 389 kts | 69° |
| 2026-05-05 03:24 | 8.44470 | -71.88494 | 21129 ft | 394 kts | 64° |
| 2026-05-05 03:25 | 8.45815 | -71.86053 | 21764 ft | 399 kts | 57° |
| 2026-05-05 03:25 | 8.47359 | -71.83698 | 22406 ft | 404 kts | 54° |
| 2026-05-05 03:25 | 8.48999 | -71.81378 | 23041 ft | 408 kts | 53° |
| 2026-05-05 03:25 | 8.50718 | -71.79070 | 23640 ft | 413 kts | 51° |
| 2026-05-05 03:26 | 8.52492 | -71.76772 | 24144 ft | 417 kts | 51° |
| 2026-05-05 03:26 | 8.54290 | -71.74499 | 24618 ft | 420 kts | 50° |
| 2026-05-05 03:26 | 8.56147 | -71.72196 | 25071 ft | 424 kts | 50° |
| 2026-05-05 03:26 | 8.58035 | -71.69889 | 25505 ft | 427 kts | 50° |
| 2026-05-05 03:27 | 8.59954 | -71.67572 | 25940 ft | 431 kts | 49° |
| 2026-05-05 03:27 | 8.61901 | -71.65245 | 26371 ft | 434 kts | 49° |
| 2026-05-05 03:27 | 8.63871 | -71.62913 | 26789 ft | 437 kts | 49° |
| 2026-05-05 03:27 | 8.65868 | -71.60564 | 27198 ft | 441 kts | 49° |
| 2026-05-05 03:28 | 8.67883 | -71.58213 | 27611 ft | 444 kts | 49° |
| 2026-05-05 03:28 | 8.69893 | -71.55884 | 28017 ft | 447 kts | 49° |
| 2026-05-05 03:28 | 8.71958 | -71.53513 | 28399 ft | 451 kts | 49° |
| 2026-05-05 03:28 | 8.74049 | -71.51128 | 28761 ft | 454 kts | 48° |
| 2026-05-05 03:29 | 8.76162 | -71.48729 | 29184 ft | 455 kts | 48° |
| 2026-05-05 03:29 | 8.78268 | -71.46344 | 29733 ft | 454 kts | 48° |
| 2026-05-05 03:29 | 8.80345 | -71.44003 | 30225 ft | 452 kts | 48° |
| 2026-05-05 03:29 | 8.82454 | -71.41644 | 30627 ft | 451 kts | 48° |
| 2026-05-05 03:30 | 8.84570 | -71.39294 | 31010 ft | 451 kts | 47° |
| 2026-05-05 03:30 | 8.86612 | -71.36892 | 31398 ft | 450 kts | 53° |
| 2026-05-05 03:30 | 8.88438 | -71.34318 | 31802 ft | 449 kts | 55° |
| 2026-05-05 03:30 | 8.90218 | -71.31727 | 32216 ft | 448 kts | 55° |
| 2026-05-05 03:31 | 8.91980 | -71.29168 | 32653 ft | 447 kts | 55° |
| 2026-05-05 03:31 | 8.93755 | -71.26591 | 33087 ft | 446 kts | 55° |
| 2026-05-05 03:31 | 8.95531 | -71.24015 | 33524 ft | 445 kts | 55° |
| 2026-05-05 03:31 | 8.97297 | -71.21453 | 33937 ft | 444 kts | 55° |
| 2026-05-05 03:32 | 8.99059 | -71.18897 | 34326 ft | 442 kts | 55° |
| 2026-05-05 03:32 | 9.00815 | -71.16349 | 34664 ft | 441 kts | 55° |
| 2026-05-05 03:32 | 9.02573 | -71.13797 | 35003 ft | 439 kts | 55° |
| 2026-05-05 03:32 | 9.04303 | -71.11286 | 35106 ft | 430 kts | 55° |
| 2026-05-05 03:33 | 9.07649 | -71.06425 | 35044 ft | 414 kts | 55° |
| 2026-05-05 03:33 | 9.10906 | -71.01692 | 35053 ft | 411 kts | 55° |
| 2026-05-05 03:34 | 9.14172 | -70.96945 | 35056 ft | 411 kts | 55° |
| 2026-05-05 03:34 | 9.17436 | -70.92199 | 35072 ft | 410 kts | 55° |
| 2026-05-05 03:35 | 9.20700 | -70.87452 | 35072 ft | 411 kts | 55° |
| 2026-05-05 03:35 | 9.23943 | -70.82731 | 35081 ft | 411 kts | 55° |
| 2026-05-05 03:36 | 9.27209 | -70.77977 | 35045 ft | 411 kts | 55° |
| 2026-05-05 03:36 | 9.30485 | -70.73215 | 35032 ft | 411 kts | 55° |
| 2026-05-05 03:37 | 9.33757 | -70.68464 | 35027 ft | 411 kts | 55° |
| 2026-05-05 03:37 | 9.37030 | -70.63709 | 35027 ft | 411 kts | 55° |
| 2026-05-05 03:38 | 9.40288 | -70.58974 | 35028 ft | 412 kts | 55° |
| 2026-05-05 03:38 | 9.43356 | -70.54087 | 35049 ft | 412 kts | 62° |
| 2026-05-05 03:39 | 9.46006 | -70.48930 | 35045 ft | 412 kts | 62° |
| 2026-05-05 03:39 | 9.48654 | -70.43778 | 35049 ft | 412 kts | 62° |
| 2026-05-05 03:40 | 9.51304 | -70.38620 | 35050 ft | 412 kts | 62° |
| 2026-05-05 03:40 | 9.53937 | -70.33494 | 35061 ft | 412 kts | 62° |
| 2026-05-05 03:41 | 9.56587 | -70.28332 | 35067 ft | 412 kts | 62° |
| 2026-05-05 03:41 | 9.59235 | -70.23176 | 35066 ft | 413 kts | 62° |
| 2026-05-05 03:42 | 9.61886 | -70.18009 | 35078 ft | 413 kts | 62° |
| 2026-05-05 03:42 | 9.64533 | -70.12847 | 35079 ft | 413 kts | 62° |
| 2026-05-05 03:43 | 9.67165 | -70.07715 | 35077 ft | 413 kts | 62° |
| 2026-05-05 03:43 | 9.69812 | -70.02546 | 35075 ft | 413 kts | 62° |
| 2026-05-05 03:44 | 9.72463 | -69.97371 | 35076 ft | 413 kts | 62° |
| 2026-05-05 03:44 | 9.74664 | -69.93072 | 35068 ft | 413 kts | 62° |
| 2026-05-05 03:45 | 9.77313 | -69.87896 | 35073 ft | 413 kts | 62° |
| 2026-05-05 03:45 | 9.79959 | -69.82721 | 35063 ft | 413 kts | 62° |
| 2026-05-05 03:46 | 9.82613 | -69.77533 | 35058 ft | 413 kts | 62° |
| 2026-05-05 03:46 | 9.85238 | -69.72394 | 35056 ft | 413 kts | 62° |
| 2026-05-05 03:47 | 9.87885 | -69.67211 | 35051 ft | 413 kts | 62° |
| 2026-05-05 03:47 | 9.90527 | -69.62037 | 35050 ft | 413 kts | 62° |
| 2026-05-05 03:48 | 9.93166 | -69.56865 | 35048 ft | 413 kts | 62° |
| 2026-05-05 03:48 | 9.95795 | -69.51714 | 35045 ft | 413 kts | 62° |
| 2026-05-05 03:49 | 9.98435 | -69.46534 | 35040 ft | 413 kts | 62° |
| 2026-05-05 03:49 | 10.01076 | -69.41351 | 35041 ft | 414 kts | 62° |
| 2026-05-05 03:50 | 10.03718 | -69.36161 | 35039 ft | 413 kts | 63° |
| 2026-05-05 03:50 | 10.05769 | -69.30689 | 35047 ft | 415 kts | 69° |
| 2026-05-05 03:51 | 10.07691 | -69.25203 | 35033 ft | 415 kts | 69° |
| 2026-05-05 03:51 | 10.09618 | -69.19690 | 35042 ft | 414 kts | 69° |
| 2026-05-05 03:52 | 10.11545 | -69.14161 | 35035 ft | 414 kts | 69° |
| 2026-05-05 03:52 | 10.13457 | -69.08677 | 35043 ft | 414 kts | 69° |
| 2026-05-05 03:53 | 10.15384 | -69.03150 | 35029 ft | 414 kts | 69° |
| 2026-05-05 03:53 | 10.17303 | -68.97631 | 35042 ft | 414 kts | 69° |
| 2026-05-05 03:54 | 10.19209 | -68.92149 | 35043 ft | 414 kts | 69° |
| 2026-05-05 03:54 | 10.21134 | -68.86606 | 34598 ft | 420 kts | 69° |
| 2026-05-05 03:55 | 10.22103 | -68.83816 | 34347 ft | 418 kts | 69° |
| 2026-05-05 03:55 | 10.23079 | -68.81005 | 33672 ft | 424 kts | 69° |
| 2026-05-05 03:55 | 10.24058 | -68.78187 | 33157 ft | 422 kts | 69° |
| 2026-05-05 03:55 | 10.25022 | -68.75406 | 32558 ft | 422 kts | 69° |
| 2026-05-05 03:56 | 10.25995 | -68.72598 | 32011 ft | 421 kts | 69° |
| 2026-05-05 03:56 | 10.26972 | -68.69781 | 31439 ft | 422 kts | 69° |
| 2026-05-05 03:56 | 10.27946 | -68.66970 | 30882 ft | 423 kts | 69° |
| 2026-05-05 03:56 | 10.28922 | -68.64151 | 30319 ft | 424 kts | 69° |
| 2026-05-05 03:57 | 10.29903 | -68.61317 | 29708 ft | 425 kts | 69° |
| 2026-05-05 03:57 | 10.30880 | -68.58497 | 29190 ft | 423 kts | 69° |
| 2026-05-05 03:57 | 10.31857 | -68.55672 | 28611 ft | 424 kts | 69° |
| 2026-05-05 03:57 | 10.32832 | -68.52853 | 28043 ft | 421 kts | 69° |
| 2026-05-05 03:58 | 10.33796 | -68.50066 | 27496 ft | 416 kts | 69° |
| 2026-05-05 03:58 | 10.34738 | -68.47340 | 26947 ft | 411 kts | 69° |
| 2026-05-05 03:58 | 10.35683 | -68.44612 | 26412 ft | 406 kts | 68° |
| 2026-05-05 03:58 | 10.36615 | -68.41917 | 25856 ft | 401 kts | 68° |
| 2026-05-05 03:59 | 10.37534 | -68.39258 | 25338 ft | 397 kts | 68° |
| 2026-05-05 03:59 | 10.38441 | -68.36625 | 24814 ft | 392 kts | 68° |
| 2026-05-05 03:59 | 10.39338 | -68.34020 | 24290 ft | 388 kts | 68° |
| 2026-05-05 03:59 | 10.40231 | -68.31441 | 23787 ft | 384 kts | 68° |
| 2026-05-05 04:00 | 10.41103 | -68.28913 | 23235 ft | 380 kts | 68° |
| 2026-05-05 04:00 | 10.41971 | -68.26400 | 22770 ft | 373 kts | 68° |
| 2026-05-05 04:00 | 10.42829 | -68.23921 | 22268 ft | 370 kts | 68° |
| 2026-05-05 04:00 | 10.43678 | -68.21463 | 21779 ft | 366 kts | 69° |
| 2026-05-05 04:01 | 10.44519 | -68.19028 | 21294 ft | 363 kts | 69° |
| 2026-05-05 04:01 | 10.45353 | -68.16615 | 20819 ft | 360 kts | 69° |
| 2026-05-05 04:01 | 10.46182 | -68.14218 | 20319 ft | 358 kts | 70° |
| 2026-05-05 04:01 | 10.46988 | -68.11870 | 19868 ft | 353 kts | 70° |
| 2026-05-05 04:02 | 10.47798 | -68.09528 | 19398 ft | 350 kts | 71° |
| 2026-05-05 04:02 | 10.48596 | -68.07207 | 18933 ft | 346 kts | 72° |
| 2026-05-05 04:02 | 10.49189 | -68.04857 | 18478 ft | 341 kts | 78° |
| 2026-05-05 04:02 | 10.49709 | -68.02514 | 17986 ft | 338 kts | 77° |
| 2026-05-05 04:03 | 10.50238 | -68.00206 | 17573 ft | 333 kts | 77° |
| 2026-05-05 04:03 | 10.50768 | -67.97917 | 17136 ft | 332 kts | 77° |
| 2026-05-05 04:03 | 10.51299 | -67.95634 | 16704 ft | 332 kts | 77° |
| 2026-05-05 04:03 | 10.51833 | -67.93358 | 16252 ft | 330 kts | 77° |
| 2026-05-05 04:04 | 10.52366 | -67.91089 | 15820 ft | 329 kts | 77° |
| 2026-05-05 04:04 | 10.52892 | -67.88859 | 15391 ft | 327 kts | 77° |
| 2026-05-05 04:04 | 10.53421 | -67.86619 | 14961 ft | 325 kts | 77° |
| 2026-05-05 04:04 | 10.53948 | -67.84392 | 14524 ft | 322 kts | 77° |
| 2026-05-05 04:05 | 10.54465 | -67.82204 | 14104 ft | 315 kts | 77° |
| 2026-05-05 04:05 | 10.54974 | -67.80058 | 13661 ft | 309 kts | 77° |
| 2026-05-05 04:05 | 10.55470 | -67.77962 | 13272 ft | 301 kts | 77° |
| 2026-05-05 04:05 | 10.55954 | -67.75918 | 12875 ft | 295 kts | 78° |
| 2026-05-05 04:06 | 10.56430 | -67.73906 | 12486 ft | 290 kts | 78° |
| 2026-05-05 04:06 | 10.56894 | -67.71944 | 12114 ft | 288 kts | 78° |
| 2026-05-05 04:06 | 10.57363 | -67.69958 | 11733 ft | 287 kts | 78° |
| 2026-05-05 04:06 | 10.57829 | -67.67988 | 11357 ft | 287 kts | 78° |
| 2026-05-05 04:07 | 10.58253 | -67.66007 | 10977 ft | 286 kts | 84° |
| 2026-05-05 04:07 | 10.58334 | -67.63997 | 10608 ft | 284 kts | 91° |
| 2026-05-05 04:07 | 10.58361 | -67.61989 | 10221 ft | 282 kts | 90° |
| 2026-05-05 04:07 | 10.58416 | -67.60009 | 9839 ft | 279 kts | 90° |
| 2026-05-05 04:08 | 10.58474 | -67.58055 | 9462 ft | 274 kts | 90° |
| 2026-05-05 04:08 | 10.58534 | -67.56158 | 9121 ft | 269 kts | 90° |
| 2026-05-05 04:08 | 10.58595 | -67.54264 | 8756 ft | 266 kts | 90° |
| 2026-05-05 04:08 | 10.58657 | -67.52391 | 8405 ft | 263 kts | 90° |
| 2026-05-05 04:09 | 10.58718 | -67.50535 | 8065 ft | 260 kts | 90° |
| 2026-05-05 04:09 | 10.58780 | -67.48697 | 7718 ft | 259 kts | 90° |
| 2026-05-05 04:09 | 10.58843 | -67.46873 | 7381 ft | 257 kts | 90° |
| 2026-05-05 04:09 | 10.58904 | -67.45065 | 7042 ft | 256 kts | 90° |
| 2026-05-05 04:10 | 10.58966 | -67.43261 | 6708 ft | 255 kts | 90° |
| 2026-05-05 04:10 | 10.59027 | -67.41463 | 6371 ft | 254 kts | 90° |
| 2026-05-05 04:10 | 10.59088 | -67.39668 | 6024 ft | 253 kts | 90° |
| 2026-05-05 04:10 | 10.59147 | -67.37885 | 5698 ft | 252 kts | 90° |
| 2026-05-05 04:11 | 10.59207 | -67.36125 | 5364 ft | 251 kts | 90° |
| 2026-05-05 04:11 | 10.59268 | -67.34352 | 5034 ft | 250 kts | 90° |
| 2026-05-05 04:11 | 10.59327 | -67.32586 | 4699 ft | 250 kts | 90° |
| 2026-05-05 04:11 | 10.59386 | -67.30824 | 4371 ft | 249 kts | 89° |
| 2026-05-05 04:12 | 10.59444 | -67.29089 | 4202 ft | 241 kts | 89° |
| 2026-05-05 04:12 | 10.59493 | -67.27418 | 4069 ft | 232 kts | 89° |
| 2026-05-05 04:12 | 10.59576 | -67.25819 | 4012 ft | 222 kts | 88° |
| 2026-05-05 04:12 | 10.59638 | -67.24286 | 3967 ft | 208 kts | 90° |
| 2026-05-05 04:13 | 10.59670 | -67.22855 | 3935 ft | 197 kts | 89° |
| 2026-05-05 04:13 | 10.59717 | -67.21473 | 3835 ft | 195 kts | 89° |
| 2026-05-05 04:13 | 10.59762 | -67.20113 | 3654 ft | 193 kts | 89° |
| 2026-05-05 04:13 | 10.59807 | -67.18759 | 3444 ft | 190 kts | 89° |
| 2026-05-05 04:14 | 10.59851 | -67.17421 | 3214 ft | 188 kts | 89° |
| 2026-05-05 04:14 | 10.59895 | -67.16096 | 2977 ft | 186 kts | 89° |
| 2026-05-05 04:14 | 10.59946 | -67.14785 | 2743 ft | 185 kts | 88° |
| 2026-05-05 04:14 | 10.59989 | -67.13481 | 2525 ft | 184 kts | 89° |
| 2026-05-05 04:15 | 10.60021 | -67.12186 | 2291 ft | 182 kts | 89° |
| 2026-05-05 04:15 | 10.60061 | -67.10921 | 2062 ft | 181 kts | 89° |
| 2026-05-05 04:15 | 10.60102 | -67.09646 | 1844 ft | 177 kts | 89° |
| 2026-05-05 04:15 | 10.60143 | -67.08410 | 1590 ft | 169 kts | 90° |
| 2026-05-05 04:16 | 10.60183 | -67.07284 | 1394 ft | 146 kts | 89° |
| 2026-05-05 04:16 | 10.60221 | -67.06321 | 1173 ft | 130 kts | 89° |
| 2026-05-05 04:16 | 10.60240 | -67.05415 | 1030 ft | 128 kts | 89° |
| 2026-05-05 04:16 | 10.60276 | -67.04507 | 953 ft | 135 kts | 88° |
| 2026-05-05 04:17 | 10.60323 | -67.03577 | 769 ft | 133 kts | 85° |
| 2026-05-05 04:17 | 10.60361 | -67.02996 | 632 ft | 136 kts | 86° |
| 2026-05-05 04:20 | 10.60373 | -67.02134 | 472 ft | 132 kts | 91° |
| 2026-05-05 04:20 | 10.60383 | -67.01228 | 275 ft | 123 kts | 88° |
| 2026-05-05 04:20 | 10.60407 | -67.00457 | 227 ft | 92 kts | 88° |
| 2026-05-05 04:21 | 10.60421 | -66.99969 | 223 ft | 54 kts | 89° |
| 2026-05-05 04:21 | 10.60427 | -66.99731 | 213 ft | 25 kts | 92° |
| 2026-05-05 04:21 | 10.60316 | -66.99673 | 210 ft | 22 kts | 178° |
| 2026-05-05 04:21 | 10.60175 | -66.99675 | 209 ft | 18 kts | 202° |
| 2026-05-05 04:22 | 10.60137 | -66.99775 | 219 ft | 15 kts | 266° |
| 2026-05-05 04:22 | 10.60128 | -66.99878 | 216 ft | 14 kts | 253° |
| 2026-05-05 04:22 | 10.60047 | -66.99913 | 221 ft | 14 kts | 179° |
| 2026-05-05 04:22 | 10.59943 | -66.99914 | 218 ft | 14 kts | 189° |
| 2026-05-05 04:23 | 10.59912 | -67.00003 | 219 ft | 12 kts | 267° |
| 2026-05-05 04:23 | 10.59904 | -67.00069 | 220 ft | 8 kts | 235° |
| 2026-05-05 04:23 | 10.59857 | -67.00078 | 220 ft | 5 kts | 179° |
| 2026-05-05 04:23 | 10.59836 | -67.00077 | 220 ft | 2 kts | 179° |
| 2026-05-05 04:24 | 10.59833 | -67.00077 | 220 ft | 0 kts | 178° |